.
WxDataArchive / Data Records for 2010-04-13
2010-04-12 April 2010 2010-04-14

Data Records for Tuesday, 13 April 2010

Time	Temp	Chill	HIndex	Humid	Dewpt	 Wind 	HiWind	WindDir	Rain 	Barom 
-----	----	-----	------	-----	-----	------	------	-------	-----	----- 
00:00	51.0	51.0	51.0	35	24.3	3	10	90	0.00	30.333 
00:05	50.8	50.8	50.8	36	24.8	2	7	90	0.00	30.333 
00:10	50.7	50.7	50.7	37	25.4	3	6	90	0.00	30.333 
00:15	50.5	50.5	50.5	36	24.6	2	6	90	0.00	30.329 
00:20	50.4	50.4	50.4	35	23.8	3	7	90	0.00	30.329 
00:25	50.2	50.2	50.2	35	23.6	2	6	90	0.00	30.329 
00:30	50.2	50.2	50.2	34	22.9	2	7	112	0.00	30.330 
00:35	50.4	50.4	50.4	31	20.9	4	9	90	0.00	30.330 
00:40	50.8	50.8	50.8	30	20.5	5	11	90	0.00	30.330 
00:45	51.0	51.0	51.0	31	21.4	3	7	90	0.00	30.325 
00:50	51.0	51.0	51.0	31	21.4	4	11	112	0.00	30.325 
00:55	51.0	51.0	51.0	32	22.2	3	7	112	0.00	30.325 
01:00	51.0	51.0	51.0	32	22.2	4	10	90	0.00	30.326 
01:05	50.8	50.8	50.8	31	21.3	4	10	90	0.00	30.326 
01:10	50.8	50.8	50.8	32	22.0	4	9	90	0.00	30.326 
01:15	50.7	50.7	50.7	32	21.9	3	7	90	0.00	30.327 
01:20	50.7	50.7	50.7	33	22.7	3	5	90	0.00	30.327 
01:25	50.7	50.7	50.7	32	21.9	4	11	112	0.00	30.327 
01:30	50.7	50.7	50.7	33	22.7	3	7	90	0.00	30.327 
01:35	50.5	50.5	50.5	33	22.5	3	5	90	0.00	30.327 
01:40	50.5	50.5	50.5	35	23.9	3	6	90	0.00	30.327 
01:45	50.5	50.5	50.5	35	23.9	3	5	90	0.00	30.328 
01:50	50.5	50.5	50.5	35	23.9	2	4	90	0.00	30.328 
01:55	50.5	50.5	50.5	35	23.9	2	5	90	0.00	30.328 
02:00	50.4	50.4	50.4	35	23.8	2	6	90	0.00	30.326 
02:05	50.5	50.5	50.5	35	23.9	3	8	90	0.00	30.326 
02:10	50.5	50.5	50.5	35	23.9	4	6	112	0.00	30.326 
02:15	50.7	50.7	50.7	35	24.1	4	10	90	0.00	30.313 
02:20	50.7	50.7	50.7	34	23.4	4	9	90	0.00	30.313 
02:25	50.7	50.7	50.7	35	24.1	3	5	112	0.00	30.313 
02:30	50.5	50.5	50.5	35	23.9	3	6	90	0.00	30.310 
02:35	50.5	50.5	50.5	34	23.2	3	7	112	0.00	30.310 
02:40	50.5	50.5	50.5	35	23.9	3	6	112	0.00	30.310 
02:45	50.5	50.5	50.5	35	23.9	2	6	90	0.00	30.308 
02:50	50.4	50.4	50.4	35	23.8	2	6	90	0.00	30.308 
02:55	50.4	50.4	50.4	36	24.5	3	9	90	0.00	30.308 
03:00	50.4	50.4	50.4	33	22.4	2	5	112	0.00	30.312 
03:05	50.2	50.2	50.2	36	24.3	2	5	90	0.00	30.312 
03:10	50.2	50.2	50.2	36	24.3	3	6	90	0.00	30.312 
03:15	50.1	50.1	50.1	38	25.5	1	4	112	0.00	30.326 
03:20	50.1	50.1	50.1	39	26.1	1	7	112	0.00	30.326 
03:25	50.1	50.1	50.1	39	26.1	3	6	90	0.00	30.326 
03:30	50.1	50.1	50.1	39	26.1	2	5	90	0.00	30.325 
03:35	50.1	50.1	50.1	41	27.3	2	6	112	0.00	30.325 
03:40	50.1	50.1	50.1	42	27.9	2	5	68	0.00	30.325 
03:45	50.1	50.1	50.1	42	27.9	3	7	112	0.00	30.326 
03:50	50.1	50.1	50.1	43	28.5	2	7	112	0.00	30.326 
03:55	49.9	49.9	49.9	44	28.9	3	7	90	0.00	30.326 
04:00	49.8	49.8	49.8	45	29.3	3	10	90	0.00	30.326 
04:05	49.8	49.8	49.8	46	29.9	3	9	112	0.00	30.326 
04:10	49.6	49.6	49.6	46	29.7	2	6	90	0.00	30.326 
04:15	49.5	49.5	49.5	48	30.6	2	8	112	0.00	30.329 
04:20	49.5	49.5	49.5	49	31.1	2	7	112	0.00	30.329 
04:25	49.4	49.4	49.4	50	31.5	3	11	90	0.00	30.329 
04:30	49.2	49.2	49.2	50	31.4	3	9	112	0.00	30.331 
04:35	49.2	49.2	49.2	51	31.9	2	6	112	0.00	30.331 
04:40	49.1	49.1	49.1	51	31.8	3	6	90	0.00	30.331 
04:45	49.1	49.1	49.1	52	32.2	3	9	90	0.00	30.326 
04:50	49.1	49.1	49.1	52	32.2	3	13	90	0.00	30.326 
04:55	49.1	49.1	49.1	52	32.2	3	11	112	0.00	30.326 
05:00	49.1	47.8	49.1	52	32.2	4	11	90	0.00	30.319 
05:05	49.2	47.9	49.2	50	31.4	4	8	112	0.00	30.319 
05:10	49.5	47.6	49.5	50	31.6	5	10	90	0.00	30.319 
05:15	49.5	47.1	49.5	50	31.6	6	12	112	0.00	30.309 
05:20	49.5	47.6	49.5	51	32.1	5	10	112	0.00	30.309 
05:25	49.4	47.5	49.4	51	32.0	5	12	90	0.00	30.309 
05:30	49.2	47.3	49.2	51	31.9	5	10	90	0.00	30.302 
05:35	49.2	47.3	49.2	51	31.9	5	11	112	0.00	30.302 
05:40	49.2	47.3	49.2	51	31.9	5	11	112	0.00	30.302 
05:45	49.1	47.2	49.1	52	32.2	5	12	112	0.00	30.310 
05:50	49.1	47.2	49.1	52	32.2	5	10	112	0.00	30.310 
05:55	48.9	47.6	48.9	53	32.5	4	9	90	0.00	30.310 
06:00	48.9	46.9	48.9	53	32.5	5	9	90	0.00	30.313 
06:05	48.9	48.9	48.9	54	33.0	3	8	112	0.00	30.313 
06:10	48.8	48.8	48.8	55	33.4	3	9	112	0.00	30.313 
06:15	48.8	48.8	48.8	56	33.8	2	7	112	0.00	30.333 
06:20	48.6	48.6	48.6	58	34.5	3	7	112	0.00	30.333 
06:25	48.6	48.6	48.6	60	35.3	3	7	90	0.00	30.333 
06:30	48.5	47.1	48.5	62	36.1	4	8	90	0.00	30.342 
06:35	48.3	48.3	48.3	63	36.3	3	9	112	0.00	30.342 
06:40	48.2	46.8	48.2	65	37.0	4	10	112	0.00	30.342 
06:45	48.0	48.0	48.0	69	38.3	3	6	112	0.00	30.343 
06:50	47.7	47.7	47.7	71	38.8	3	5	90	0.00	30.343 
06:55	47.4	47.4	47.4	72	38.8	3	10	112	0.00	30.343 
07:00	47.4	45.2	47.4	72	38.8	5	11	90	0.00	30.343 
07:05	47.4	45.2	47.4	72	38.8	5	11	90	0.00	30.343 
07:10	47.4	45.9	47.4	73	39.2	4	9	112	0.00	30.343 
07:15	47.1	45.5	47.1	75	39.6	4	10	90	0.00	30.347 
07:20	47.0	47.0	47.0	76	39.8	3	9	90	0.00	30.347 
07:25	46.8	46.8	46.8	76	39.6	3	7	90	0.00	30.347 
07:30	46.8	44.5	46.8	76	39.6	5	9	90	0.00	30.349 
07:35	46.8	44.5	46.8	77	40.0	5	10	112	0.00	30.349 
07:40	46.7	45.1	46.7	78	40.2	4	9	112	0.00	30.349 
07:45	46.5	44.1	46.5	78	40.0	5	11	112	0.00	30.352 
07:50	46.4	43.4	46.4	79	40.2	6	11	90	0.00	30.352 
07:55	46.2	43.8	46.2	79	40.1	5	9	90	0.00	30.352 
08:00	46.2	44.5	46.2	80	40.4	4	10	90	0.00	30.351 
08:05	46.1	43.6	46.1	80	40.3	5	12	112	0.00	30.351 
08:10	46.1	43.6	46.1	80	40.3	5	10	90	0.00	30.351 
08:15	46.1	43.0	46.1	81	40.6	6	12	90	0.00	30.357 
08:20	46.0	43.5	46.0	81	40.5	5	10	90	0.00	30.357 
08:25	46.0	44.2	46.0	81	40.5	4	10	90	0.00	30.357 
08:30	45.8	44.0	45.8	82	40.6	4	9	112	0.00	30.362 
08:35	45.8	43.3	45.8	82	40.6	5	11	90	0.00	30.362 
08:40	46.1	44.4	46.1	82	40.9	4	12	90	0.00	30.362 
08:45	46.1	44.4	46.1	82	40.9	4	12	90	0.00	30.372 
08:50	46.0	44.2	46.0	82	40.8	4	13	90	0.00	30.372 
08:55	46.1	44.4	46.1	83	41.2	4	10	112	0.00	30.372 
09:00	46.5	44.1	46.5	81	41.0	5	9	112	0.00	30.371 
09:05	46.5	44.8	46.5	81	41.0	4	10	90	0.00	30.371 
09:10	46.7	46.7	46.7	81	41.2	3	12	90	0.00	30.371 
09:15	47.3	47.3	47.3	80	41.4	3	10	112	0.00	30.380 
09:20	47.6	46.1	47.6	78	41.1	4	10	90	0.00	30.380 
09:25	47.3	44.5	47.3	78	40.8	6	12	90	0.00	30.380 
09:30	47.0	44.1	47.0	79	40.8	6	15	112	0.00	30.382 
09:35	47.1	44.2	47.1	78	40.6	6	15	112	0.00	30.382 
09:40	47.4	45.9	47.4	78	40.9	4	12	90	0.00	30.382 
09:45	48.0	45.9	48.0	76	40.8	5	12	90	0.00	30.395 
09:50	48.2	46.1	48.2	76	41.0	5	9	112	0.00	30.395 
09:55	48.3	48.3	48.3	78	41.8	3	7	90	0.00	30.395 
10:00	48.5	48.5	48.5	76	41.3	3	8	90	0.00	30.400 
10:05	48.6	48.6	48.6	76	41.4	3	10	90	0.00	30.400 
10:10	48.6	47.3	48.6	75	41.0	4	10	90	0.00	30.400 
10:15	48.5	45.9	48.5	74	40.6	6	14	112	0.00	30.411 
10:20	48.5	46.5	48.5	74	40.6	5	12	90	0.00	30.411 
10:25	48.6	46.6	48.6	75	41.0	5	11	112	0.00	30.411 
10:30	48.6	46.6	48.6	75	41.0	5	11	90	0.00	30.416 
10:35	48.8	46.8	48.8	75	41.2	5	11	112	0.00	30.416 
10:40	48.9	46.9	48.9	75	41.3	5	10	112	0.00	30.416 
10:45	49.1	47.8	49.1	74	41.2	4	11	90	0.00	30.417 
10:50	49.1	47.2	49.1	73	40.8	5	11	90	0.00	30.417 
10:55	49.2	47.3	49.2	73	40.9	5	14	112	0.00	30.417 
11:00	49.1	47.2	49.1	73	40.8	5	11	112	0.00	30.416 
11:05	49.1	47.2	49.1	73	40.8	5	11	112	0.00	30.416 
11:10	49.1	47.2	49.1	74	41.2	5	12	112	0.00	30.416 
11:15	49.2	47.9	49.2	73	40.9	4	11	90	0.00	30.416 
11:20	49.5	48.3	49.5	72	40.9	4	13	112	0.00	30.416 
11:25	49.6	47.2	49.6	71	40.6	6	13	90	0.00	30.416 
11:30	49.9	48.1	49.9	73	41.6	5	12	112	0.00	30.417 
11:35	50.4	50.4	50.4	72	41.7	6	14	90	0.00	30.417 
11:40	50.5	50.5	50.5	71	41.5	6	11	112	0.00	30.417 
11:45	50.5	50.5	50.5	70	41.1	5	10	90	0.00	30.426 
11:50	50.5	50.5	50.5	70	41.1	3	9	112	0.00	30.426 
11:55	50.7	50.7	50.7	71	41.6	4	9	90	0.00	30.426 
12:00	50.8	50.8	50.8	70	41.4	5	11	112	0.00	30.427 
12:05	51.1	51.1	51.1	69	41.3	4	12	112	0.00	30.427 
12:10	51.3	51.3	51.3	70	41.9	4	13	112	0.00	30.427 
12:15	51.6	51.6	51.6	69	41.8	4	12	112	0.00	30.420 
12:20	51.6	51.6	51.6	68	41.4	6	10	90	0.00	30.420 
12:25	52.0	52.0	52.0	68	41.8	4	8	112	0.00	30.420 
12:30	52.8	52.8	52.8	67	42.1	5	14	90	0.00	30.419 
12:35	53.1	53.1	53.1	66	42.0	5	15	90	0.00	30.419 
12:40	53.1	53.1	53.1	66	42.0	7	13	112	0.00	30.419 
12:45	53.6	53.6	53.6	67	42.9	5	11	112	0.00	30.410 
12:50	54.1	54.1	54.1	65	42.6	5	12	112	0.00	30.410 
12:55	54.2	54.2	54.2	64	42.3	7	17	112	0.00	30.410 
13:00	54.1	54.1	54.1	65	42.6	7	14	112	0.00	30.409 
13:05	54.4	54.4	54.4	65	42.9	5	15	90	0.00	30.409 
13:10	55.0	55.0	55.0	65	43.5	5	11	112	0.00	30.409 
13:15	55.7	55.7	55.7	64	43.7	4	11	112	0.00	30.406 
13:20	56.0	56.0	56.0	63	43.6	4	11	90	0.00	30.406 
13:25	56.5	56.5	56.5	62	43.6	5	10	112	0.00	30.406 
13:30	56.5	56.5	56.5	63	44.1	6	12	112	0.00	30.402 
13:35	56.6	56.6	56.6	61	43.3	5	13	90	0.00	30.402 
13:40	56.9	56.9	56.9	60	43.2	5	15	112	0.00	30.402 
13:45	56.6	56.6	56.6	62	43.7	7	15	112	0.00	30.395 
13:50	56.2	56.2	56.2	61	42.9	8	15	112	0.00	30.395 
13:55	55.9	55.9	55.9	62	43.1	8	15	112	0.00	30.395 
14:00	56.3	56.3	56.3	64	44.3	6	11	112	0.00	30.392 
14:05	56.7	56.7	56.7	62	43.8	6	13	90	0.00	30.392 
14:10	56.7	56.7	56.7	61	43.4	6	14	112	0.00	30.392 
14:15	57.0	57.0	57.0	61	43.7	6	13	112	0.00	30.393 
14:20	57.0	57.0	57.0	61	43.7	6	13	112	0.00	30.393 
14:25	57.3	57.3	57.3	61	44.0	6	16	112	0.00	30.393 
14:30	57.5	57.5	57.5	61	44.2	5	12	112	0.00	30.395 
14:35	57.5	57.5	57.5	61	44.2	6	20	112	0.00	30.395 
14:40	58.0	58.0	58.0	59	43.8	6	13	112	0.00	30.395 
14:45	58.1	58.1	58.1	59	43.8	6	12	112	0.00	30.392 
14:50	58.3	58.3	58.3	58	43.6	7	14	112	0.00	30.392 
14:55	58.3	58.3	58.3	59	44.0	6	12	112	0.00	30.392 
15:00	58.4	58.4	58.4	60	44.6	6	18	90	0.00	30.394 
15:05	58.6	58.6	58.6	57	43.4	6	12	112	0.00	30.394 
15:10	58.7	58.7	58.7	57	43.5	6	12	112	0.00	30.394 
15:15	58.9	58.9	58.9	56	43.2	5	12	112	0.00	30.393 
15:20	59.3	59.3	59.3	59	45.0	5	13	112	0.00	30.393 
15:25	59.5	59.5	59.5	55	43.3	7	14	112	0.00	30.393 
15:30	59.3	59.3	59.3	55	43.1	5	16	90	0.00	30.391 
15:35	59.5	59.5	59.5	55	43.3	6	11	112	0.00	30.391 
15:40	59.6	59.6	59.6	54	42.9	5	16	112	0.00	30.391 
15:45	59.8	59.8	59.8	54	43.1	5	12	90	0.00	30.382 
15:50	59.6	59.6	59.6	54	42.9	5	12	112	0.00	30.382 
15:55	59.6	59.6	59.6	58	44.8	6	13	90	0.00	30.382 
16:00	59.9	59.9	59.9	57	44.6	4	11	112	0.00	30.380 
16:05	59.6	59.6	59.6	54	42.9	6	13	112	0.00	30.380 
16:10	59.8	59.8	59.8	54	43.1	5	10	112	0.00	30.380 
16:15	59.8	59.8	59.8	56	44.1	5	12	90	0.00	30.383 
16:20	59.9	59.9	59.9	55	43.7	4	11	112	0.00	30.383 
16:25	59.9	59.9	59.9	54	43.2	6	15	112	0.00	30.383 
16:30	59.6	59.6	59.6	52	42.0	7	15	112	0.00	30.381 
16:35	59.6	59.6	59.6	52	42.0	5	16	90	0.00	30.381 
16:40	59.6	59.6	59.6	55	43.4	6	13	112	0.00	30.381 
16:45	59.8	59.8	59.8	54	43.1	5	13	112	0.00	30.382 
16:50	59.8	59.8	59.8	52	42.1	6	11	112	0.00	30.382 
16:55	59.9	59.9	59.9	52	42.2	5	11	112	0.00	30.382 
17:00	59.8	59.8	59.8	52	42.1	6	13	112	0.00	30.383 
17:05	59.8	59.8	59.8	53	42.6	4	10	112	0.00	30.383 
17:10	59.6	59.6	59.6	52	42.0	7	15	112	0.00	30.383 
17:15	59.6	59.6	59.6	51	41.4	5	11	90	0.00	30.386 
17:20	59.5	59.5	59.5	52	41.9	6	14	90	0.00	30.386 
17:25	59.3	59.3	59.3	51	41.2	6	13	112	0.00	30.386 
17:30	59.0	59.0	59.0	51	40.9	6	12	90	0.00	30.382 
17:35	59.0	59.0	59.0	51	40.9	5	13	112	0.00	30.382 
17:40	58.9	58.9	58.9	53	41.8	6	12	112	0.00	30.382 
17:45	58.7	58.7	58.7	52	41.1	4	10	112	0.00	30.384 
17:50	58.6	58.6	58.6	51	40.5	5	11	112	0.00	30.384 
17:55	58.4	58.4	58.4	52	40.8	5	15	112	0.00	30.384 
18:00	58.3	58.3	58.3	51	40.3	6	13	112	0.00	30.394 
18:05	58.1	58.1	58.1	52	40.6	6	11	112	0.00	30.394 
18:10	58.0	58.0	58.0	52	40.5	6	12	112	0.00	30.394 
18:15	58.0	58.0	58.0	52	40.5	5	11	90	0.00	30.397 
18:20	57.8	57.8	57.8	50	39.3	5	11	112	0.00	30.397 
18:25	57.6	57.6	57.6	52	40.1	5	12	90	0.00	30.397 
18:30	57.6	57.6	57.6	52	40.1	4	11	90	0.00	30.398 
18:35	57.6	57.6	57.6	51	39.6	4	10	90	0.00	30.398 
18:40	57.5	57.5	57.5	52	40.0	4	10	90	0.00	30.398 
18:45	57.5	57.5	57.5	53	40.5	4	12	112	0.00	30.395 
18:50	57.2	57.2	57.2	53	40.2	5	11	112	0.00	30.395 
18:55	57.0	57.0	57.0	52	39.5	4	12	90	0.00	30.395 
19:00	56.9	56.9	56.9	52	39.5	5	12	90	0.00	30.398 
19:05	56.7	56.7	56.7	52	39.3	5	13	112	0.00	30.398 
19:10	56.6	56.6	56.6	52	39.2	4	12	112	0.00	30.398 
19:15	56.5	56.5	56.5	53	39.6	6	12	90	0.00	30.400 
19:20	56.2	56.2	56.2	52	38.8	6	13	112	0.00	30.400 
19:25	55.9	55.9	55.9	52	38.5	6	14	90	0.00	30.400 
19:30	55.6	55.6	55.6	52	38.3	6	12	112	0.00	30.399 
19:35	55.4	55.4	55.4	53	38.6	5	16	90	0.00	30.399 
19:40	55.3	55.3	55.3	53	38.5	5	9	90	0.00	30.399 
19:45	55.1	55.1	55.1	54	38.8	4	12	112	0.00	30.401 
19:50	55.0	55.0	55.0	54	38.7	5	12	90	0.00	30.401 
19:55	54.8	54.8	54.8	54	38.5	4	12	90	0.00	30.401 
20:00	54.5	54.5	54.5	54	38.2	5	9	90	0.00	30.402 
20:05	54.4	54.4	54.4	55	38.6	5	10	90	0.00	30.402 
20:10	54.2	54.2	54.2	56	38.8	5	15	90	0.00	30.402 
20:15	53.9	53.9	53.9	58	39.5	4	9	112	0.00	30.402 
20:20	53.8	53.8	53.8	59	39.8	4	9	90	0.00	30.402 
20:25	53.5	53.5	53.5	60	40.0	3	7	90	0.00	30.402 
20:30	53.2	53.2	53.2	62	40.5	2	6	112	0.00	30.409 
20:35	52.8	52.8	52.8	62	40.1	3	8	112	0.00	30.409 
20:40	52.5	52.5	52.5	62	39.9	2	6	90	0.00	30.409 
20:45	52.0	52.0	52.0	63	39.8	2	9	90	0.00	30.416 
20:50	51.7	51.7	51.7	63	39.5	3	7	112	0.00	30.416 
20:55	51.6	51.6	51.6	62	39.0	3	6	90	0.00	30.416 
21:00	51.3	51.3	51.3	62	38.7	2	8	90	0.00	30.419 
21:05	51.1	51.1	51.1	62	38.5	4	9	90	0.00	30.419 
21:10	50.8	50.8	50.8	62	38.3	3	7	90	0.00	30.419 
21:15	50.7	50.7	50.7	62	38.2	4	10	90	0.00	30.428 
21:20	50.4	50.4	50.4	62	37.9	3	7	90	0.00	30.428 
21:25	50.2	50.2	50.2	61	37.3	2	6	90	0.00	30.428 
21:30	49.9	49.9	49.9	61	37.0	3	7	90	0.00	30.434 
21:35	49.8	49.8	49.8	61	36.9	3	9	90	0.00	30.434 
21:40	49.6	49.6	49.6	61	36.7	3	6	112	0.00	30.434 
21:45	49.5	47.6	49.5	61	36.6	5	10	90	0.00	30.436 
21:50	49.4	48.2	49.4	60	36.1	4	9	112	0.00	30.436 
21:55	49.2	47.9	49.2	59	35.5	4	11	112	0.00	30.436 
22:00	49.1	47.8	49.1	59	35.4	4	8	112	0.00	30.444 
22:05	48.9	47.6	48.9	59	35.2	4	6	90	0.00	30.444 
22:10	48.8	48.8	48.8	60	35.5	2	9	68	0.00	30.444 
22:15	48.6	48.6	48.6	62	36.2	1	3	112	0.00	30.445 
22:20	48.3	48.3	48.3	64	36.7	1	3	112	0.00	30.445 
22:25	48.0	48.0	48.0	64	36.4	2	5	90	0.00	30.445 
22:30	47.9	47.9	47.9	64	36.3	2	6	112	0.00	30.448 
22:35	47.7	47.7	47.7	63	35.7	2	4	112	0.00	30.448 
22:40	47.6	47.6	47.6	61	34.8	2	8	90	0.00	30.448 
22:45	47.6	46.1	47.6	57	33.1	4	11	90	0.00	30.442 
22:50	47.7	47.7	47.7	55	32.3	3	6	112	0.00	30.442 
22:55	47.7	47.7	47.7	55	32.3	3	6	90	0.00	30.442 
23:00	47.6	47.6	47.6	55	32.2	3	8	90	0.00	30.442 
23:05	47.6	46.1	47.6	54	31.8	4	10	90	0.00	30.442 
23:10	47.4	47.4	47.4	55	32.1	3	9	112	0.00	30.442 
23:15	47.3	47.3	47.3	55	32.0	3	6	112	0.00	30.439 
23:20	47.0	47.0	47.0	55	31.7	3	6	90	0.00	30.439 
23:25	46.8	46.8	46.8	55	31.5	3	7	90	0.00	30.439 
23:30	46.7	46.7	46.7	57	32.3	2	5	90	0.00	30.439 
23:35	46.5	46.5	46.5	57	32.1	3	5	90	0.00	30.439 
23:40	46.4	46.4	46.4	57	32.0	2	5	90	0.00	30.439 
23:45	46.2	46.2	46.2	57	31.8	3	9	112	0.00	30.436 
23:50	46.1	46.1	46.1	58	32.2	3	6	112	0.00	30.436 
23:55	46.1	46.1	46.1	58	32.2	3	5	112	0.00	30.436 

CoCoRaHS
IN-AL-39
A2 Web Hosting
Creative Commons License
GoDaddy
search engine by freefind advanced

loaded 2018-11-20 15:31:49 • last modified 2010-11-18 10:43:29
Privacy PolicyDisclaimer
• wx.awcolley.com is powered by PmWiki v.2002016 •
• all content (unless otherwise noted) © 2018 A W Colley